Terminal Aerodrome Forecast
Issued by NWS

Home | Current Version | Previous Version | Text Only | Print | Product List | Glossary On
Versions: 1 2 3 4 5 6 7 8 9 10 11 12 13 14 15 16 17 18 19
000
FTUS41 KGYX 232107 AAA
TAFHIE
TAF AMD
KHIE 232107Z 2321/2418 VRB04KT 4SM -SNPL SCT025 OVC040
      TEMPO 2321/2401 2SM -RASN BKN025 OVC040
     FM240300 VRB04KT P6SM BKN025 OVC040
     FM241500 28009G16KT P6SM SCT025=

USA.gov is the U.S. government's official web portal to all federal, state and local government web resources and services.